Ann Arbor Township, Michigan
Current Conditions -  °F | °C
As of 9:53 AM on Friday 26 Dec 2014 (Local Time) from KARB Reporting Station
Clear Clear  
Wind Chill: -3°   Ceiling: Unl
Heat Index:   Visibility: 10mi
Dew Point:   Wind: 10mph
Humidity: 89%   Direction: 210°SSW
Pressure: 30.13"   Gusts: NA
Location:  42.3281°N, 83.7037°W
Report Text: KARB 261453Z 21009KT 10SM CLR 02/00 A3013 RMK AO2 SLP210 T00170000 53001
Loading
Personal Weather Stations






























Interactive Weather Map New forecast layout! Learn more

10-Day Weather Forecast

Advertisements
Track Severe Weather on mobile